createdAt,value
2019-01-02T00:00:51.063Z,397
2019-01-02T00:01:58.267Z,401
2019-01-02T00:03:05.862Z,401
2019-01-02T00:04:13.739Z,397
2019-01-02T00:05:20.941Z,393
2019-01-02T00:06:28.808Z,391
2019-01-02T00:07:36.369Z,390
2019-01-02T00:08:43.563Z,391
2019-01-02T00:09:51.408Z,392
2019-01-02T00:10:59.171Z,399
2019-01-02T00:12:06.905Z,402
2019-01-02T00:13:14.114Z,404
2019-01-02T00:14:21.789Z,405
2019-01-02T00:15:28.978Z,406
2019-01-02T00:16:35.918Z,407
2019-01-02T00:17:43.374Z,407
2019-01-02T00:18:51.450Z,410
2019-01-02T00:19:58.636Z,410
2019-01-02T00:21:06.410Z,411
2019-01-02T00:22:13.872Z,411
2019-01-02T00:23:21.018Z,411
2019-01-02T00:24:28.213Z,412
2019-01-02T00:25:36.140Z,411
2019-01-02T00:26:44.037Z,411
2019-01-02T00:27:51.240Z,410
2019-01-02T00:28:59.067Z,410
2019-01-02T00:30:06.590Z,408
2019-01-02T00:31:13.784Z,406
2019-01-02T00:32:20.992Z,406
2019-01-02T00:33:28.686Z,404
2019-01-02T00:34:36.385Z,402
2019-01-02T00:35:43.590Z,398
2019-01-02T00:36:51.160Z,396
2019-01-02T00:37:58.820Z,393
2019-01-02T00:39:05.746Z,392
2019-01-02T00:40:13.396Z,390
2019-01-02T00:41:21.189Z,389
2019-01-02T00:42:28.417Z,387
2019-01-02T00:43:36.180Z,387
2019-01-02T00:44:44.035Z,386
2019-01-02T00:45:50.964Z,387
2019-01-02T00:46:58.158Z,388
2019-01-02T00:48:05.992Z,387
2019-01-02T00:49:13.659Z,387
2019-01-02T00:50:20.860Z,387
2019-01-02T00:51:28.335Z,386
2019-01-02T00:52:35.939Z,386
2019-01-02T00:53:43.137Z,385
2019-01-02T00:54:50.930Z,384
2019-01-02T00:55:58.595Z,385
2019-01-02T00:57:05.522Z,384
2019-01-02T00:58:13.260Z,384
2019-01-02T00:59:20.881Z,382
2019-01-02T01:00:28.082Z,380
2019-01-02T01:01:35.938Z,380
2019-01-02T01:02:43.880Z,378
2019-01-02T01:03:51.074Z,375
2019-01-02T01:04:58.576Z,374
2019-01-02T01:06:06.460Z,373
2019-01-02T01:07:13.655Z,374
2019-01-02T01:08:21.532Z,374
2019-01-02T01:09:29.430Z,371
2019-01-02T01:10:36.626Z,368
2019-01-02T01:11:44.299Z,366
2019-01-02T01:12:52.091Z,365
2019-01-02T01:13:59.299Z,365
2019-01-02T01:15:07.147Z,361
2019-01-02T01:16:14.992Z,359
2019-01-02T01:17:22.188Z,357
2019-01-02T01:18:29.715Z,356
2019-01-02T01:19:37.666Z,356
2019-01-02T01:20:44.594Z,355
2019-01-02T01:21:51.796Z,354
2019-01-02T01:22:59.331Z,353
2019-01-02T01:24:07.000Z,353
2019-01-02T01:25:14.196Z,352
2019-01-02T01:26:21.563Z,352
2019-01-02T01:27:29.245Z,352
2019-01-02T01:28:37.159Z,352
2019-01-02T01:29:44.382Z,353
2019-01-02T01:30:52.051Z,355
2019-01-02T01:31:59.999Z,356
2019-01-02T01:33:06.923Z,357
2019-01-02T01:34:14.118Z,358
2019-01-02T01:35:21.939Z,358
2019-01-02T01:36:29.781Z,356
2019-01-02T01:37:36.699Z,357
2019-01-02T01:38:43.903Z,356
2019-01-02T01:39:51.666Z,353
2019-01-02T01:40:59.543Z,352
2019-01-02T01:42:06.766Z,351
2019-01-02T01:43:14.234Z,351
2019-01-02T01:44:21.286Z,350
2019-01-02T01:45:28.831Z,351
2019-01-02T01:46:36.024Z,352
2019-01-02T01:47:43.650Z,352
2019-01-02T01:48:51.458Z,351
2019-01-02T01:49:58.392Z,351
2019-01-02T01:51:05.589Z,351
2019-01-02T01:52:12.690Z,350
2019-01-02T01:53:20.363Z,350
2019-01-02T01:54:27.559Z,351
2019-01-02T01:55:34.970Z,351
2019-01-02T01:56:42.734Z,350
2019-01-02T01:57:50.018Z,350
2019-01-02T01:58:56.945Z,350
2019-01-02T02:00:04.875Z,350
2019-01-02T02:01:12.672Z,348
2019-01-02T02:02:19.599Z,348
2019-01-02T02:03:26.517Z,348
2019-01-02T02:04:34.085Z,347
2019-01-02T02:05:41.782Z,346
2019-01-02T02:06:48.984Z,347
2019-01-02T02:07:56.182Z,347
2019-01-02T02:09:04.013Z,347
2019-01-02T02:10:11.789Z,347
2019-01-02T02:11:19.001Z,347
2019-01-02T02:12:26.924Z,348
2019-01-02T02:13:35.071Z,348
2019-01-02T02:14:42.353Z,348
2019-01-02T02:15:49.547Z,349
2019-01-02T02:16:57.417Z,362
2019-01-02T02:18:05.158Z,354
2019-01-02T02:19:12.350Z,359
2019-01-02T02:20:19.546Z,360
2019-01-02T02:21:26.950Z,359
2019-01-02T02:22:34.527Z,351
2019-01-02T02:23:41.722Z,353
2019-01-02T02:24:49.492Z,351
2019-01-02T02:25:57.125Z,353
2019-01-02T02:27:04.609Z,353
2019-01-02T02:28:11.800Z,354
2019-01-02T02:29:19.460Z,359
2019-01-02T02:30:26.932Z,357
2019-01-02T02:31:34.472Z,355
2019-01-02T02:32:42.646Z,355
2019-01-02T02:33:51.186Z,363
2019-01-02T02:34:59.082Z,360
2019-01-02T02:36:06.949Z,359
2019-01-02T02:37:14.633Z,361
2019-01-02T02:38:22.526Z,360
2019-01-02T02:39:30.933Z,362
2019-01-02T02:40:38.627Z,368
2019-01-02T02:41:45.909Z,369
2019-01-02T02:42:53.723Z,371
2019-01-02T02:44:02.133Z,374
2019-01-02T02:45:10.328Z,375
2019-01-02T02:46:18.172Z,377
2019-01-02T02:47:25.802Z,379
2019-01-02T02:48:34.003Z,380
2019-01-02T02:49:41.567Z,379
2019-01-02T02:50:49.410Z,379
2019-01-02T02:51:57.269Z,380
2019-01-02T02:53:04.670Z,380
2019-01-02T02:54:13.113Z,380
2019-01-02T02:55:20.954Z,380
2019-01-02T02:56:28.367Z,381
2019-01-02T02:57:35.554Z,381
2019-01-02T02:58:43.334Z,382
2019-01-02T02:59:51.041Z,384
2019-01-02T03:00:58.511Z,386
2019-01-02T03:02:06.924Z,385
2019-01-02T03:03:14.752Z,384
2019-01-02T03:04:22.542Z,383
2019-01-02T03:05:30.353Z,380
2019-01-02T03:06:38.062Z,380
2019-01-02T03:07:46.454Z,377
2019-01-02T03:08:54.401Z,375
2019-01-02T03:10:02.070Z,372
2019-01-02T03:11:10.491Z,370
2019-01-02T03:12:18.175Z,368
2019-01-02T03:13:25.620Z,366
2019-01-02T03:14:33.286Z,352
2019-01-02T03:15:40.939Z,355
2019-01-02T03:16:49.257Z,355
2019-01-02T03:17:57.045Z,353
2019-01-02T03:19:04.879Z,352
2019-01-02T03:20:13.096Z,356
2019-01-02T03:21:20.992Z,358
2019-01-02T03:22:29.334Z,362
2019-01-02T03:23:36.894Z,364
2019-01-02T03:24:44.652Z,363
2019-01-02T03:25:52.968Z,361
2019-01-02T03:27:00.807Z,359
2019-01-02T03:28:08.640Z,362
2019-01-02T03:29:16.254Z,365
2019-01-02T03:30:24.625Z,364
2019-01-02T03:31:32.952Z,361
2019-01-02T03:32:41.234Z,362
2019-01-02T03:33:48.763Z,360
2019-01-02T03:34:55.954Z,358
2019-01-02T03:36:02.881Z,353
2019-01-02T03:37:10.076Z,351
2019-01-02T03:38:17.266Z,350
2019-01-02T03:39:24.457Z,351
2019-01-02T03:40:31.377Z,353
2019-01-02T03:41:38.574Z,352
2019-01-02T03:42:45.492Z,353
2019-01-02T03:43:52.416Z,353
2019-01-02T03:44:59.615Z,355
2019-01-02T03:46:06.916Z,355
2019-01-02T03:47:28.757Z,352
2019-01-02T03:48:35.958Z,352
2019-01-02T03:49:43.144Z,355
2019-01-02T03:50:50.366Z,356
2019-01-02T03:51:57.561Z,359
2019-01-02T03:53:04.760Z,360
2019-01-02T03:54:11.955Z,359
2019-01-02T03:55:19.145Z,357
2019-01-02T03:56:26.339Z,356
2019-01-02T03:57:33.533Z,356
2019-01-02T03:58:40.443Z,353
2019-01-02T03:59:47.361Z,351
2019-01-02T04:00:54.553Z,349
2019-01-02T04:02:01.441Z,347
2019-01-02T04:03:08.378Z,347
2019-01-02T04:04:15.591Z,342
2019-01-02T04:05:22.783Z,336
2019-01-02T04:06:29.988Z,332
2019-01-02T04:07:37.188Z,328
2019-01-02T04:08:44.380Z,325
2019-01-02T04:09:51.614Z,324
2019-01-02T04:10:58.813Z,323
2019-01-02T04:12:06.014Z,322
2019-01-02T04:13:13.211Z,322
2019-01-02T04:14:20.400Z,322
2019-01-02T04:15:27.611Z,322
2019-01-02T04:16:34.800Z,322
2019-01-02T04:17:41.734Z,322
2019-01-02T04:18:48.649Z,322
2019-01-02T04:19:55.843Z,322
2019-01-02T04:21:03.059Z,322
2019-01-02T04:22:10.244Z,322
2019-01-02T04:23:17.161Z,321
2019-01-02T04:24:24.084Z,322
2019-01-02T04:25:30.735Z,322
2019-01-02T04:26:37.937Z,321
2019-01-02T04:27:45.131Z,321
2019-01-02T04:28:52.051Z,320
2019-01-02T04:29:59.278Z,321
2019-01-02T04:31:06.474Z,322
2019-01-02T04:32:13.391Z,322
2019-01-02T04:33:20.611Z,322
2019-01-02T04:34:27.787Z,322
2019-01-02T04:35:34.702Z,321
2019-01-02T04:36:41.894Z,350
2019-01-02T04:37:48.807Z,362
2019-01-02T04:38:56.014Z,364
2019-01-02T04:40:03.219Z,360
2019-01-02T04:41:10.415Z,363
2019-01-02T04:42:17.614Z,369
2019-01-02T04:43:24.810Z,373
2019-01-02T04:44:32.207Z,375
2019-01-02T04:45:39.408Z,374
2019-01-02T04:46:46.603Z,370
2019-01-02T04:47:53.796Z,372
2019-01-02T04:49:00.989Z,372
2019-01-02T04:50:07.915Z,373
2019-01-02T04:51:14.570Z,374
2019-01-02T04:52:21.488Z,373
2019-01-02T04:53:28.686Z,375
2019-01-02T04:54:35.879Z,372
2019-01-02T04:55:43.069Z,372
2019-01-02T04:56:50.262Z,370
2019-01-02T04:57:57.458Z,368
2019-01-02T04:59:04.383Z,363
2019-01-02T05:00:11.305Z,361
2019-01-02T05:01:18.217Z,359
2019-01-02T05:02:25.411Z,360
2019-01-02T05:03:32.605Z,360
2019-01-02T05:04:39.791Z,363
2019-01-02T05:05:47.020Z,362
2019-01-02T05:06:54.218Z,359
2019-01-02T05:08:01.434Z,357
2019-01-02T05:09:08.626Z,355
2019-01-02T05:10:15.819Z,353
2019-01-02T05:11:23.015Z,351
2019-01-02T05:12:29.938Z,349
2019-01-02T05:13:37.133Z,357
2019-01-02T05:14:44.054Z,353
2019-01-02T05:15:50.974Z,353
2019-01-02T05:16:58.167Z,351
2019-01-02T05:18:05.366Z,347
2019-01-02T05:19:12.558Z,345
2019-01-02T05:20:19.766Z,345
2019-01-02T05:21:26.692Z,345
2019-01-02T05:22:33.614Z,346
2019-01-02T05:23:40.535Z,347
2019-01-02T05:24:47.458Z,347
2019-01-02T05:25:54.661Z,349
2019-01-02T05:27:01.866Z,349
2019-01-02T05:28:09.059Z,349
2019-01-02T05:29:15.980Z,348
2019-01-02T05:30:22.896Z,348
2019-01-02T05:31:29.817Z,349
2019-01-02T05:32:36.738Z,350
2019-01-02T05:33:43.653Z,349
2019-01-02T05:34:50.846Z,349
2019-01-02T05:35:58.039Z,351
2019-01-02T05:37:05.239Z,354
2019-01-02T05:38:12.434Z,356
2019-01-02T05:39:19.630Z,365
2019-01-02T05:40:26.279Z,366
2019-01-02T05:41:33.196Z,370
2019-01-02T05:42:40.393Z,371
2019-01-02T05:43:47.580Z,373
2019-01-02T05:44:54.222Z,374
2019-01-02T05:46:01.413Z,373
2019-01-02T05:47:08.604Z,374
2019-01-02T05:48:15.798Z,375
2019-01-02T05:49:22.720Z,374
2019-01-02T05:50:29.659Z,375
2019-01-02T05:51:36.855Z,375
2019-01-02T05:52:44.055Z,375
2019-01-02T05:53:51.251Z,374
2019-01-02T05:54:58.175Z,369
2019-01-02T05:56:05.096Z,366
2019-01-02T05:57:12.292Z,366
2019-01-02T05:58:19.484Z,363
2019-01-02T05:59:26.677Z,362
2019-01-02T06:00:39.755Z,361
2019-01-02T06:01:46.813Z,363
2019-01-02T06:02:53.737Z,359
2019-01-02T06:04:00.928Z,356
2019-01-02T06:05:07.845Z,352
2019-01-02T06:06:14.768Z,352
2019-01-02T06:07:21.966Z,352
2019-01-02T06:08:29.160Z,350
2019-01-02T06:09:36.352Z,349
2019-01-02T06:10:43.550Z,348
2019-01-02T06:11:50.746Z,348
2019-01-02T06:12:57.948Z,348
2019-01-02T06:14:05.143Z,349
2019-01-02T06:15:12.076Z,349
2019-01-02T06:16:19.004Z,348
2019-01-02T06:17:26.203Z,348
2019-01-02T06:18:32.848Z,352
2019-01-02T06:19:40.047Z,350
2019-01-02T06:20:46.967Z,352
2019-01-02T06:21:53.898Z,353
2019-01-02T06:23:01.092Z,349
2019-01-02T06:24:08.289Z,346
2019-01-02T06:25:15.214Z,348
2019-01-02T06:26:22.410Z,358
2019-01-02T06:27:29.598Z,367
2019-01-02T06:28:36.789Z,366
2019-01-02T06:29:43.982Z,370
2019-01-02T06:30:51.185Z,371
2019-01-02T06:31:58.382Z,372
2019-01-02T06:33:05.303Z,374
2019-01-02T06:34:12.223Z,375
2019-01-02T06:35:19.420Z,376
2019-01-02T06:36:28.027Z,377
2019-01-02T06:37:34.943Z,379
2019-01-02T06:38:42.132Z,381
2019-01-02T06:39:49.335Z,382
2019-01-02T06:40:56.521Z,382
2019-01-02T06:42:03.712Z,383
2019-01-02T06:43:10.936Z,383
2019-01-02T06:44:18.129Z,381
2019-01-02T06:45:25.045Z,380
2019-01-02T06:46:32.255Z,377
2019-01-02T06:47:39.458Z,373
2019-01-02T06:48:46.373Z,368
2019-01-02T06:49:53.568Z,362
2019-01-02T06:51:00.485Z,358
2019-01-02T06:52:07.688Z,355
2019-01-02T06:53:14.625Z,353
2019-01-02T06:54:21.542Z,354
2019-01-02T06:55:28.735Z,351
2019-01-02T06:56:35.933Z,351
2019-01-02T06:57:43.134Z,350
2019-01-02T06:58:50.331Z,349
2019-01-02T06:59:57.524Z,349
2019-01-02T07:01:04.724Z,349
2019-01-02T07:02:11.926Z,348
2019-01-02T07:03:19.121Z,347
2019-01-02T07:04:26.314Z,345
2019-01-02T07:05:33.507Z,346
2019-01-02T07:06:40.707Z,345
2019-01-02T07:07:47.626Z,344
2019-01-02T07:08:54.827Z,343
2019-01-02T07:10:01.790Z,342
2019-01-02T07:11:08.709Z,343
2019-01-02T07:12:15.353Z,342
2019-01-02T07:13:22.553Z,341
2019-01-02T07:14:29.468Z,342
2019-01-02T07:15:36.664Z,341
2019-01-02T07:16:43.858Z,341
2019-01-02T07:17:51.053Z,341
2019-01-02T07:18:58.248Z,341
2019-01-02T07:20:05.443Z,341
2019-01-02T07:21:13.267Z,344
2019-01-02T07:22:20.159Z,344
2019-01-02T07:23:27.367Z,344
2019-01-02T07:24:34.291Z,344
2019-01-02T07:25:41.492Z,343
2019-01-02T07:26:49.292Z,343
2019-01-02T07:27:55.942Z,343
2019-01-02T07:29:02.856Z,342
2019-01-02T07:30:10.051Z,342
2019-01-02T07:31:17.251Z,343
2019-01-02T07:32:25.664Z,342
2019-01-02T07:33:47.514Z,341
2019-01-02T07:34:54.714Z,341
2019-01-02T07:36:01.363Z,341
2019-01-02T07:37:08.558Z,341
2019-01-02T07:38:15.485Z,342
2019-01-02T07:39:22.411Z,341
2019-01-02T07:40:29.603Z,341
2019-01-02T07:41:36.524Z,342
2019-01-02T07:42:43.715Z,341
2019-01-02T07:43:50.910Z,341
2019-01-02T07:44:58.106Z,341
2019-01-02T07:46:05.303Z,341
2019-01-02T07:47:12.497Z,342
2019-01-02T07:48:19.693Z,342
2019-01-02T07:49:26.888Z,342
2019-01-02T07:50:33.811Z,341
2019-01-02T07:51:41.005Z,343
2019-01-02T23:00:06.952Z,321
2019-01-02T23:01:13.895Z,322
2019-01-02T23:02:20.834Z,322
2019-01-02T23:03:28.044Z,323
2019-01-02T23:04:35.258Z,321
2019-01-02T23:05:42.482Z,319
2019-01-02T23:06:49.692Z,319
2019-01-02T23:07:56.896Z,320
2019-01-02T23:09:04.105Z,319
2019-01-02T23:10:11.315Z,319
2019-01-02T23:11:18.525Z,319
2019-01-02T23:12:25.466Z,318
2019-01-02T23:13:32.680Z,319
2019-01-02T23:14:39.620Z,318
2019-01-02T23:15:46.560Z,317
2019-01-02T23:16:54.003Z,317
2019-01-02T23:18:00.673Z,318
2019-01-02T23:19:07.886Z,318
2019-01-02T23:20:15.100Z,318
2019-01-02T23:21:22.318Z,317
2019-01-02T23:22:29.255Z,318
2019-01-02T23:23:36.479Z,317
2019-01-02T23:24:43.425Z,317
2019-01-02T23:25:50.635Z,317
2019-01-02T23:26:57.836Z,316
2019-01-02T23:28:05.039Z,317
2019-01-02T23:29:12.252Z,317
2019-01-02T23:30:18.913Z,317
2019-01-02T23:31:40.771Z,317
2019-01-02T23:32:47.972Z,318
2019-01-02T23:33:55.181Z,318
2019-01-02T23:35:02.386Z,318
2019-01-02T23:36:09.329Z,318
2019-01-02T23:37:16.277Z,318
2019-01-02T23:38:23.221Z,318
2019-01-02T23:39:30.434Z,319
2019-01-02T23:40:37.646Z,318
2019-01-02T23:41:44.851Z,318
2019-01-02T23:42:52.060Z,318
2019-01-02T23:43:59.017Z,318
2019-01-02T23:45:06.232Z,318
2019-01-02T23:46:12.895Z,318
2019-01-02T23:47:20.311Z,318
2019-01-02T23:48:27.514Z,319
2019-01-02T23:49:34.445Z,319
2019-01-02T23:50:41.379Z,320
2019-01-02T23:51:48.579Z,320
2019-01-02T23:52:55.786Z,319
2019-01-02T23:54:02.996Z,319
2019-01-02T23:55:09.926Z,318
2019-01-02T23:56:17.129Z,320
2019-01-02T23:57:24.067Z,320
2019-01-02T23:58:31.273Z,319
2019-01-02T23:59:38.198Z,318
